KITR

Details ICAO KITR
Name KIT CARSON COUNTY
Region United States
Timezone America/Denver (UTC-6.0)
Plans Departing 0
Arriving 3
Stats Elevation 4,219 ft / 1,286 m (AMSL)
Location 39.242510° -102.285377°
Runways 1
Magnetic Variation 6.653° E
Sunrise 2018-05-23 11:30:54 UTC / 2018-05-23 05:30:54 Local
Sunset 2018-05-24 02:03:47 UTC / 2018-05-23 20:03:47 Local
Advertisement - Login to hide

Runways

ID Width Length Bearing (true) Bearing (mag) Surface Threshold Offset Overrun Length
15 75 ft / 23 m 5,208 ft / 1,587 m 159.97° 153.32° Concrete 0 ft / 0 m 0 ft / 0 m
33 75 ft / 23 m 5,208 ft / 1,587 m 339.97° 333.32° Concrete 0 ft / 0 m 0 ft / 0 m

Map

Weather


0- 5 10 15 20 25 30 35+ Temperature / ° C

Clouds and Precipitation
Forecast for 2018-05-23 18:00 UTC. Updated 10 minutes ago

Ground ~20,000 ft ~40,000 ft Winds

METAR

KITR 231653Z AUTO 20022G34KT 10SM CLR 25/10 A3003 RMK AO2 PK WND 19035/1640 SLP116 T02500100

TAF

Not found

Frequencies

Recorded 135.22 MHz ASOS
Unicom 122.80 MHz CTAF/UNICOM
Warning: Do not use this data for real-world aviation or navigation. No guarantee of current accuracy is given.